sensor_id;sensor_type;location;lat;lon;timestamp;temperature;humidity
14873;DHT22;7528;48.576;19.122;2023-05-16T00:04:22;14.00;84.20
14873;DHT22;7528;48.576;19.122;2023-05-16T00:09:26;14.00;84.30
14873;DHT22;7528;48.576;19.122;2023-05-16T00:14:30;13.90;84.40
14873;DHT22;7528;48.576;19.122;2023-05-16T00:19:32;13.80;84.60
14873;DHT22;7528;48.576;19.122;2023-05-16T00:24:35;13.70;84.60
14873;DHT22;7528;48.576;19.122;2023-05-16T00:29:39;13.70;84.40
14873;DHT22;7528;48.576;19.122;2023-05-16T00:34:42;13.70;83.70
14873;DHT22;7528;48.576;19.122;2023-05-16T00:39:44;13.70;83.60
14873;DHT22;7528;48.576;19.122;2023-05-16T00:44:48;13.80;83.50
14873;DHT22;7528;48.576;19.122;2023-05-16T00:49:51;13.80;84.40
14873;DHT22;7528;48.576;19.122;2023-05-16T00:54:56;13.70;84.80
14873;DHT22;7528;48.576;19.122;2023-05-16T01:00:00;13.70;84.30
14873;DHT22;7528;48.576;19.122;2023-05-16T01:05:03;13.60;85.10
14873;DHT22;7528;48.576;19.122;2023-05-16T01:10:08;13.60;85.70
14873;DHT22;7528;48.576;19.122;2023-05-16T01:15:13;13.50;86.30
14873;DHT22;7528;48.576;19.122;2023-05-16T01:20:29;13.60;86.40
14873;DHT22;7528;48.576;19.122;2023-05-16T01:25:45;13.60;86.90
14873;DHT22;7528;48.576;19.122;2023-05-16T01:30:52;13.60;86.70
14873;DHT22;7528;48.576;19.122;2023-05-16T01:35:59;13.60;86.80
14873;DHT22;7528;48.576;19.122;2023-05-16T01:41:06;13.70;87.20
14873;DHT22;7528;48.576;19.122;2023-05-16T01:46:14;13.70;87.20
14873;DHT22;7528;48.576;19.122;2023-05-16T01:51:18;13.70;87.00
14873;DHT22;7528;48.576;19.122;2023-05-16T01:56:22;13.70;86.90
14873;DHT22;7528;48.576;19.122;2023-05-16T02:01:29;13.70;87.10
14873;DHT22;7528;48.576;19.122;2023-05-16T02:06:32;13.70;87.70
14873;DHT22;7528;48.576;19.122;2023-05-16T02:11:34;13.70;87.80
14873;DHT22;7528;48.576;19.122;2023-05-16T02:16:38;13.70;87.80
14873;DHT22;7528;48.576;19.122;2023-05-16T02:21:41;13.70;87.80
14873;DHT22;7528;48.576;19.122;2023-05-16T02:26:43;13.70;87.70
14873;DHT22;7528;48.576;19.122;2023-05-16T02:31:47;13.70;87.30
14873;DHT22;7528;48.576;19.122;2023-05-16T02:36:50;13.60;87.30
14873;DHT22;7528;48.576;19.122;2023-05-16T02:41:52;13.50;87.50
14873;DHT22;7528;48.576;19.122;2023-05-16T02:46:56;13.50;87.30
14873;DHT22;7528;48.576;19.122;2023-05-16T02:51:58;13.50;87.70
14873;DHT22;7528;48.576;19.122;2023-05-16T02:57:01;13.40;87.90
14873;DHT22;7528;48.576;19.122;2023-05-16T03:02:05;13.40;88.60
14873;DHT22;7528;48.576;19.122;2023-05-16T03:07:08;13.40;88.80
14873;DHT22;7528;48.576;19.122;2023-05-16T03:12:10;13.50;88.50
14873;DHT22;7528;48.576;19.122;2023-05-16T03:17:14;13.40;89.00
14873;DHT22;7528;48.576;19.122;2023-05-16T03:22:16;13.40;89.00
14873;DHT22;7528;48.576;19.122;2023-05-16T03:27:19;13.30;88.90
14873;DHT22;7528;48.576;19.122;2023-05-16T03:32:25;13.30;88.90
14873;DHT22;7528;48.576;19.122;2023-05-16T03:37:27;13.40;88.90
14873;DHT22;7528;48.576;19.122;2023-05-16T03:42:30;13.40;88.70
14873;DHT22;7528;48.576;19.122;2023-05-16T03:47:34;13.50;88.60
14873;DHT22;7528;48.576;19.122;2023-05-16T03:52:37;13.40;89.10
14873;DHT22;7528;48.576;19.122;2023-05-16T03:57:40;13.40;89.80
14873;DHT22;7528;48.576;19.122;2023-05-16T04:02:44;13.50;89.60
14873;DHT22;7528;48.576;19.122;2023-05-16T04:07:46;13.50;89.30
14873;DHT22;7528;48.576;19.122;2023-05-16T04:12:48;13.60;89.00
14873;DHT22;7528;48.576;19.122;2023-05-16T04:17:52;13.70;89.40
14873;DHT22;7528;48.576;19.122;2023-05-16T04:22:55;13.70;87.80
14873;DHT22;7528;48.576;19.122;2023-05-16T04:27:57;13.70;87.40
14873;DHT22;7528;48.576;19.122;2023-05-16T04:33:02;13.70;87.70
14873;DHT22;7528;48.576;19.122;2023-05-16T04:38:05;13.70;88.10
14873;DHT22;7528;48.576;19.122;2023-05-16T04:43:07;13.70;87.70
14873;DHT22;7528;48.576;19.122;2023-05-16T04:48:11;13.90;88.00
14873;DHT22;7528;48.576;19.122;2023-05-16T04:53:13;13.90;88.10
14873;DHT22;7528;48.576;19.122;2023-05-16T04:58:16;14.00;88.10
14873;DHT22;7528;48.576;19.122;2023-05-16T05:03:19;14.10;87.80
14873;DHT22;7528;48.576;19.122;2023-05-16T05:08:22;14.20;86.40
14873;DHT22;7528;48.576;19.122;2023-05-16T05:13:24;14.20;86.70
14873;DHT22;7528;48.576;19.122;2023-05-16T05:18:28;14.30;86.00
14873;DHT22;7528;48.576;19.122;2023-05-16T05:23:31;14.30;84.50
14873;DHT22;7528;48.576;19.122;2023-05-16T05:28:34;14.40;84.90
14873;DHT22;7528;48.576;19.122;2023-05-16T05:33:39;14.50;85.50
14873;DHT22;7528;48.576;19.122;2023-05-16T05:38:42;14.60;85.80
14873;DHT22;7528;48.576;19.122;2023-05-16T05:43:44;14.70;84.90
14873;DHT22;7528;48.576;19.122;2023-05-16T05:48:48;14.70;85.00
14873;DHT22;7528;48.576;19.122;2023-05-16T05:53:51;14.70;84.90
14873;DHT22;7528;48.576;19.122;2023-05-16T05:58:53;14.80;84.30
14873;DHT22;7528;48.576;19.122;2023-05-16T06:03:57;14.90;83.80
14873;DHT22;7528;48.576;19.122;2023-05-16T06:09:00;15.10;83.50
14873;DHT22;7528;48.576;19.122;2023-05-16T06:14:02;15.30;82.70
14873;DHT22;7528;48.576;19.122;2023-05-16T06:19:07;15.40;82.90
14873;DHT22;7528;48.576;19.122;2023-05-16T06:24:09;15.40;83.00
14873;DHT22;7528;48.576;19.122;2023-05-16T06:29:12;15.40;83.60
14873;DHT22;7528;48.576;19.122;2023-05-16T06:34:16;15.50;82.80
14873;DHT22;7528;48.576;19.122;2023-05-16T06:39:18;15.60;83.90
14873;DHT22;7528;48.576;19.122;2023-05-16T06:44:22;15.70;82.30
14873;DHT22;7528;48.576;19.122;2023-05-16T06:49:26;15.70;81.10
14873;DHT22;7528;48.576;19.122;2023-05-16T06:54:28;15.80;81.10
14873;DHT22;7528;48.576;19.122;2023-05-16T06:59:31;15.90;80.80
14873;DHT22;7528;48.576;19.122;2023-05-16T07:04:34;15.90;80.40
14873;DHT22;7528;48.576;19.122;2023-05-16T07:09:37;15.90;82.80
14873;DHT22;7528;48.576;19.122;2023-05-16T07:14:40;16.00;82.40
14873;DHT22;7528;48.576;19.122;2023-05-16T07:19:45;16.10;81.90
14873;DHT22;7528;48.576;19.122;2023-05-16T07:24:47;16.20;82.00
14873;DHT22;7528;48.576;19.122;2023-05-16T07:29:49;16.30;81.20
14873;DHT22;7528;48.576;19.122;2023-05-16T07:34:53;16.50;79.90
14873;DHT22;7528;48.576;19.122;2023-05-16T07:39:56;16.70;80.00
14873;DHT22;7528;48.576;19.122;2023-05-16T07:44:58;17.00;79.00
14873;DHT22;7528;48.576;19.122;2023-05-16T07:50:04;17.10;79.10
14873;DHT22;7528;48.576;19.122;2023-05-16T07:55:07;17.10;78.70
14873;DHT22;7528;48.576;19.122;2023-05-16T08:00:11;17.20;78.60
14873;DHT22;7528;48.576;19.122;2023-05-16T08:05:15;17.20;79.50
14873;DHT22;7528;48.576;19.122;2023-05-16T08:10:17;17.20;79.70
14873;DHT22;7528;48.576;19.122;2023-05-16T08:15:20;17.30;79.90
14873;DHT22;7528;48.576;19.122;2023-05-16T08:20:24;17.30;80.00
14873;DHT22;7528;48.576;19.122;2023-05-16T08:25:26;17.40;79.80
14873;DHT22;7528;48.576;19.122;2023-05-16T08:30:29;17.40;79.60
14873;DHT22;7528;48.576;19.122;2023-05-16T08:35:32;17.40;78.80
14873;DHT22;7528;48.576;19.122;2023-05-16T08:40:36;17.40;78.90
14873;DHT22;7528;48.576;19.122;2023-05-16T08:45:39;17.40;77.70
14873;DHT22;7528;48.576;19.122;2023-05-16T08:50:43;17.50;77.20
14873;DHT22;7528;48.576;19.122;2023-05-16T08:55:47;17.60;75.90
14873;DHT22;7528;48.576;19.122;2023-05-16T09:00:49;17.70;76.30
14873;DHT22;7528;48.576;19.122;2023-05-16T09:05:53;17.80;77.70
14873;DHT22;7528;48.576;19.122;2023-05-16T09:10:55;17.90;78.00
14873;DHT22;7528;48.576;19.122;2023-05-16T09:16:07;17.90;75.50
14873;DHT22;7528;48.576;19.122;2023-05-16T09:21:12;17.90;76.20
14873;DHT22;7528;48.576;19.122;2023-05-16T09:26:15;17.90;79.10
14873;DHT22;7528;48.576;19.122;2023-05-16T09:31:20;17.90;79.30
14873;DHT22;7528;48.576;19.122;2023-05-16T09:36:26;17.90;81.00
14873;DHT22;7528;48.576;19.122;2023-05-16T09:41:32;17.90;83.20
14873;DHT22;7528;48.576;19.122;2023-05-16T09:46:36;17.80;83.50
14873;DHT22;7528;48.576;19.122;2023-05-16T09:51:41;17.80;84.30
14873;DHT22;7528;48.576;19.122;2023-05-16T09:56:48;17.80;84.30
14873;DHT22;7528;48.576;19.122;2023-05-16T10:01:52;17.80;84.60
14873;DHT22;7528;48.576;19.122;2023-05-16T10:07:01;17.80;84.70
14873;DHT22;7528;48.576;19.122;2023-05-16T10:12:05;17.80;84.70
14873;DHT22;7528;48.576;19.122;2023-05-16T10:17:11;17.80;88.20
14873;DHT22;7528;48.576;19.122;2023-05-16T10:22:17;17.80;88.80
14873;DHT22;7528;48.576;19.122;2023-05-16T10:27:21;17.80;90.20
14873;DHT22;7528;48.576;19.122;2023-05-16T10:32:25;17.70;88.90
14873;DHT22;7528;48.576;19.122;2023-05-16T10:37:31;17.60;90.70
14873;DHT22;7528;48.576;19.122;2023-05-16T10:42:34;17.60;90.40
14873;DHT22;7528;48.576;19.122;2023-05-16T10:47:37;17.60;90.20
14873;DHT22;7528;48.576;19.122;2023-05-16T10:52:41;17.60;90.10
14873;DHT22;7528;48.576;19.122;2023-05-16T10:57:45;17.60;90.40
14873;DHT22;7528;48.576;19.122;2023-05-16T11:02:48;17.60;90.10
14873;DHT22;7528;48.576;19.122;2023-05-16T11:08:04;17.50;90.40
14873;DHT22;7528;48.576;19.122;2023-05-16T11:13:07;17.60;90.50
14873;DHT22;7528;48.576;19.122;2023-05-16T11:18:14;17.70;90.80
14873;DHT22;7528;48.576;19.122;2023-05-16T11:23:22;17.70;90.70
14873;DHT22;7528;48.576;19.122;2023-05-16T11:28:26;17.60;90.90
14873;DHT22;7528;48.576;19.122;2023-05-16T11:33:30;17.60;91.40
14873;DHT22;7528;48.576;19.122;2023-05-16T11:38:36;17.60;91.80
14873;DHT22;7528;48.576;19.122;2023-05-16T11:43:44;17.60;91.10
14873;DHT22;7528;48.576;19.122;2023-05-16T11:48:47;17.50;90.90
14873;DHT22;7528;48.576;19.122;2023-05-16T11:53:51;17.50;91.10
14873;DHT22;7528;48.576;19.122;2023-05-16T11:58:54;17.40;91.40
14873;DHT22;7528;48.576;19.122;2023-05-16T12:03:57;17.50;91.80
14873;DHT22;7528;48.576;19.122;2023-05-16T12:09:11;17.40;91.80
14873;DHT22;7528;48.576;19.122;2023-05-16T12:14:14;17.40;92.20
14873;DHT22;7528;48.576;19.122;2023-05-16T12:19:17;17.40;92.40
14873;DHT22;7528;48.576;19.122;2023-05-16T12:24:21;17.40;92.90
14873;DHT22;7528;48.576;19.122;2023-05-16T12:29:24;17.40;92.90
14873;DHT22;7528;48.576;19.122;2023-05-16T12:34:28;17.50;93.40
14873;DHT22;7528;48.576;19.122;2023-05-16T12:39:37;17.50;93.10
14873;DHT22;7528;48.576;19.122;2023-05-16T12:44:44;17.40;92.40
14873;DHT22;7528;48.576;19.122;2023-05-16T12:49:47;17.40;92.00
14873;DHT22;7528;48.576;19.122;2023-05-16T12:54:53;17.40;92.00
14873;DHT22;7528;48.576;19.122;2023-05-16T12:59:55;17.30;92.20
14873;DHT22;7528;48.576;19.122;2023-05-16T13:04:58;17.40;92.10
14873;DHT22;7528;48.576;19.122;2023-05-16T13:10:02;17.40;92.40
14873;DHT22;7528;48.576;19.122;2023-05-16T13:15:07;17.40;92.80
14873;DHT22;7528;48.576;19.122;2023-05-16T13:20:10;17.40;92.90
14873;DHT22;7528;48.576;19.122;2023-05-16T13:25:16;17.50;93.40
14873;DHT22;7528;48.576;19.122;2023-05-16T13:30:18;17.40;93.80
14873;DHT22;7528;48.576;19.122;2023-05-16T13:35:21;17.40;94.00
14873;DHT22;7528;48.576;19.122;2023-05-16T13:40:24;17.50;93.70
14873;DHT22;7528;48.576;19.122;2023-05-16T13:45:27;17.50;93.60
14873;DHT22;7528;48.576;19.122;2023-05-16T13:50:31;17.50;93.50
14873;DHT22;7528;48.576;19.122;2023-05-16T13:55:35;17.60;93.20
14873;DHT22;7528;48.576;19.122;2023-05-16T14:00:37;17.60;93.60
14873;DHT22;7528;48.576;19.122;2023-05-16T14:05:40;17.60;93.30
14873;DHT22;7528;48.576;19.122;2023-05-16T14:10:44;17.60;93.00
14873;DHT22;7528;48.576;19.122;2023-05-16T14:15:46;17.60;93.10
14873;DHT22;7528;48.576;19.122;2023-05-16T14:20:49;17.70;93.30
14873;DHT22;7528;48.576;19.122;2023-05-16T14:25:55;17.70;93.70
14873;DHT22;7528;48.576;19.122;2023-05-16T14:30:58;17.70;93.60
14873;DHT22;7528;48.576;19.122;2023-05-16T14:36:00;17.60;93.50
14873;DHT22;7528;48.576;19.122;2023-05-16T14:41:04;17.70;94.00
14873;DHT22;7528;48.576;19.122;2023-05-16T14:46:07;17.70;93.30
14873;DHT22;7528;48.576;19.122;2023-05-16T14:51:09;17.60;92.90
14873;DHT22;7528;48.576;19.122;2023-05-16T14:56:14;17.50;93.30
14873;DHT22;7528;48.576;19.122;2023-05-16T15:01:16;17.50;93.90
14873;DHT22;7528;48.576;19.122;2023-05-16T15:06:19;17.50;93.30
14873;DHT22;7528;48.576;19.122;2023-05-16T15:11:22;17.40;93.40
14873;DHT22;7528;48.576;19.122;2023-05-16T15:16:25;17.40;94.10
14873;DHT22;7528;48.576;19.122;2023-05-16T15:21:28;17.40;94.40
14873;DHT22;7528;48.576;19.122;2023-05-16T15:26:37;17.50;94.90
14873;DHT22;7528;48.576;19.122;2023-05-16T15:31:40;17.50;94.80
14873;DHT22;7528;48.576;19.122;2023-05-16T15:36:42;17.60;94.90
14873;DHT22;7528;48.576;19.122;2023-05-16T15:41:46;17.60;95.00
14873;DHT22;7528;48.576;19.122;2023-05-16T15:46:48;17.50;94.40
14873;DHT22;7528;48.576;19.122;2023-05-16T15:51:51;17.50;95.10
14873;DHT22;7528;48.576;19.122;2023-05-16T15:56:55;17.60;94.80
14873;DHT22;7528;48.576;19.122;2023-05-16T16:01:58;17.60;94.80
14873;DHT22;7528;48.576;19.122;2023-05-16T16:07:05;17.70;94.90
14873;DHT22;7528;48.576;19.122;2023-05-16T16:12:09;17.80;95.10
14873;DHT22;7528;48.576;19.122;2023-05-16T16:17:15;17.80;95.00
14873;DHT22;7528;48.576;19.122;2023-05-16T16:22:17;17.70;95.00
14873;DHT22;7528;48.576;19.122;2023-05-16T16:27:21;17.70;95.20
14873;DHT22;7528;48.576;19.122;2023-05-16T16:32:23;17.70;95.20
14873;DHT22;7528;48.576;19.122;2023-05-16T16:37:26;17.70;95.40
14873;DHT22;7528;48.576;19.122;2023-05-16T16:42:30;17.70;95.50
14873;DHT22;7528;48.576;19.122;2023-05-16T16:47:33;17.60;95.60
14873;DHT22;7528;48.576;19.122;2023-05-16T16:52:36;17.60;95.60
14873;DHT22;7528;48.576;19.122;2023-05-16T16:57:40;17.60;95.60
14873;DHT22;7528;48.576;19.122;2023-05-16T17:02:42;17.60;95.40
14873;DHT22;7528;48.576;19.122;2023-05-16T17:07:45;17.60;95.40
14873;DHT22;7528;48.576;19.122;2023-05-16T17:12:49;17.60;95.20
14873;DHT22;7528;48.576;19.122;2023-05-16T17:17:52;17.60;95.20
14873;DHT22;7528;48.576;19.122;2023-05-16T17:22:54;17.60;95.20
14873;DHT22;7528;48.576;19.122;2023-05-16T17:28:02;17.60;95.30
14873;DHT22;7528;48.576;19.122;2023-05-16T17:33:04;17.50;95.70
14873;DHT22;7528;48.576;19.122;2023-05-16T17:38:08;17.50;96.20
14873;DHT22;7528;48.576;19.122;2023-05-16T17:43:14;17.40;96.20
14873;DHT22;7528;48.576;19.122;2023-05-16T17:48:18;17.40;96.30
14873;DHT22;7528;48.576;19.122;2023-05-16T17:53:22;17.50;96.20
14873;DHT22;7528;48.576;19.122;2023-05-16T17:58:26;17.50;96.00
14873;DHT22;7528;48.576;19.122;2023-05-16T18:03:29;17.50;95.90
14873;DHT22;7528;48.576;19.122;2023-05-16T18:08:31;17.50;95.80
14873;DHT22;7528;48.576;19.122;2023-05-16T18:13:36;17.50;95.70
14873;DHT22;7528;48.576;19.122;2023-05-16T18:18:38;17.50;95.80
14873;DHT22;7528;48.576;19.122;2023-05-16T18:23:41;17.50;96.00
14873;DHT22;7528;48.576;19.122;2023-05-16T18:28:45;17.50;95.90
14873;DHT22;7528;48.576;19.122;2023-05-16T18:33:47;17.40;95.80
14873;DHT22;7528;48.576;19.122;2023-05-16T18:38:50;17.40;95.80
14873;DHT22;7528;48.576;19.122;2023-05-16T18:43:53;17.40;96.00
14873;DHT22;7528;48.576;19.122;2023-05-16T18:48:56;17.40;95.90
14873;DHT22;7528;48.576;19.122;2023-05-16T18:53:58;17.40;95.80
14873;DHT22;7528;48.576;19.122;2023-05-16T18:59:02;17.40;95.70
14873;DHT22;7528;48.576;19.122;2023-05-16T19:04:06;17.40;95.90
14873;DHT22;7528;48.576;19.122;2023-05-16T19:09:08;17.30;96.10
14873;DHT22;7528;48.576;19.122;2023-05-16T19:14:12;17.30;96.00
14873;DHT22;7528;48.576;19.122;2023-05-16T19:19:15;17.40;96.00
14873;DHT22;7528;48.576;19.122;2023-05-16T19:24:17;17.40;95.90
14873;DHT22;7528;48.576;19.122;2023-05-16T19:29:21;17.30;95.90
14873;DHT22;7528;48.576;19.122;2023-05-16T19:34:23;17.30;96.20
14873;DHT22;7528;48.576;19.122;2023-05-16T19:39:26;17.30;96.30
14873;DHT22;7528;48.576;19.122;2023-05-16T19:44:31;17.30;96.30
14873;DHT22;7528;48.576;19.122;2023-05-16T19:49:33;17.30;96.60
14873;DHT22;7528;48.576;19.122;2023-05-16T19:54:36;17.30;96.20
14873;DHT22;7528;48.576;19.122;2023-05-16T19:59:40;17.30;96.20
14873;DHT22;7528;48.576;19.122;2023-05-16T20:04:42;17.30;96.50
14873;DHT22;7528;48.576;19.122;2023-05-16T20:09:44;17.30;97.00
14873;DHT22;7528;48.576;19.122;2023-05-16T20:14:48;17.30;96.90
14873;DHT22;7528;48.576;19.122;2023-05-16T20:19:51;17.30;96.70
14873;DHT22;7528;48.576;19.122;2023-05-16T20:24:54;17.30;96.80
14873;DHT22;7528;48.576;19.122;2023-05-16T20:29:57;17.30;96.70
14873;DHT22;7528;48.576;19.122;2023-05-16T20:35:00;17.30;96.70
14873;DHT22;7528;48.576;19.122;2023-05-16T20:40:05;17.30;96.60
14873;DHT22;7528;48.576;19.122;2023-05-16T20:45:10;17.20;96.50
14873;DHT22;7528;48.576;19.122;2023-05-16T20:50:12;17.20;96.70
14873;DHT22;7528;48.576;19.122;2023-05-16T20:55:15;17.20;96.80
14873;DHT22;7528;48.576;19.122;2023-05-16T21:00:19;17.20;96.70
14873;DHT22;7528;48.576;19.122;2023-05-16T21:05:21;17.20;96.70
14873;DHT22;7528;48.576;19.122;2023-05-16T21:10:23;17.20;96.70
14873;DHT22;7528;48.576;19.122;2023-05-16T21:15:28;17.20;96.70
14873;DHT22;7528;48.576;19.122;2023-05-16T21:20:30;17.20;96.60
14873;DHT22;7528;48.576;19.122;2023-05-16T21:25:33;17.20;96.70
14873;DHT22;7528;48.576;19.122;2023-05-16T21:30:37;17.20;96.80
14873;DHT22;7528;48.576;19.122;2023-05-16T21:35:40;17.20;96.90
14873;DHT22;7528;48.576;19.122;2023-05-16T21:40:42;17.20;96.70
14873;DHT22;7528;48.576;19.122;2023-05-16T21:45:46;17.20;96.70
14873;DHT22;7528;48.576;19.122;2023-05-16T21:50:49;17.10;96.70
14873;DHT22;7528;48.576;19.122;2023-05-16T21:55:51;17.10;96.50
14873;DHT22;7528;48.576;19.122;2023-05-16T22:00:55;17.10;97.00
14873;DHT22;7528;48.576;19.122;2023-05-16T22:05:57;17.00;96.90
14873;DHT22;7528;48.576;19.122;2023-05-16T22:11:01;17.00;97.00
14873;DHT22;7528;48.576;19.122;2023-05-16T22:16:05;17.00;97.00
14873;DHT22;7528;48.576;19.122;2023-05-16T22:21:08;17.00;96.90
14873;DHT22;7528;48.576;19.122;2023-05-16T22:26:11;17.00;96.80
14873;DHT22;7528;48.576;19.122;2023-05-16T22:31:15;16.90;96.30
14873;DHT22;7528;48.576;19.122;2023-05-16T22:36:17;16.90;96.20
14873;DHT22;7528;48.576;19.122;2023-05-16T22:41:20;17.00;96.20
14873;DHT22;7528;48.576;19.122;2023-05-16T22:46:23;16.90;96.70
14873;DHT22;7528;48.576;19.122;2023-05-16T22:51:26;16.90;96.90
14873;DHT22;7528;48.576;19.122;2023-05-16T22:56:28;16.90;97.00
14873;DHT22;7528;48.576;19.122;2023-05-16T23:01:33;16.90;96.80
14873;DHT22;7528;48.576;19.122;2023-05-16T23:06:36;16.90;96.70
14873;DHT22;7528;48.576;19.122;2023-05-16T23:11:38;16.90;96.50
14873;DHT22;7528;48.576;19.122;2023-05-16T23:16:42;16.90;96.60
14873;DHT22;7528;48.576;19.122;2023-05-16T23:21:44;16.90;96.30
14873;DHT22;7528;48.576;19.122;2023-05-16T23:26:47;16.80;96.20
14873;DHT22;7528;48.576;19.122;2023-05-16T23:31:51;16.80;96.50
14873;DHT22;7528;48.576;19.122;2023-05-16T23:36:53;16.80;96.00
14873;DHT22;7528;48.576;19.122;2023-05-16T23:41:55;16.70;96.30
14873;DHT22;7528;48.576;19.122;2023-05-16T23:47:01;16.70;96.10
14873;DHT22;7528;48.576;19.122;2023-05-16T23:52:04;16.70;95.70
14873;DHT22;7528;48.576;19.122;2023-05-16T23:57:07;16.60;95.50
